Time;durP1;ratioP1;P1;durP2;ratioP2;P2;SDS_P1;SDS_P2;PMS_P1;PMS_P2;Temp;Humidity;BMP_temperature;BMP_pressure;BME280_temperature;BME280_humidity;BME280_pressure;Samples;Min_cycle;Max_cycle;Signal;HPM_P1;HPM_P2
2022/05/14 00:00:44;;;;;;;4.70;4.20;;;16.80;35.10;;;;;;5091826;28;20172;-32
2022/05/14 00:03:10;;;;;;;5.73;4.70;;;16.80;35.30;;;;;;5092070;28;20175;-31
2022/05/14 00:05:35;;;;;;;6.07;4.37;;;16.80;35.10;;;;;;5091937;28;20175;-32
2022/05/14 00:08:01;;;;;;;3.83;3.43;;;16.70;35.50;;;;;;5092054;28;20491;-32
2022/05/14 00:10:31;;;;;;;5.13;3.60;;;16.70;35.40;;;;;;5091864;28;20440;-32
2022/05/14 00:13:06;;;;;;;4.78;3.75;;;16.70;35.40;;;;;;5092049;28;20178;-31
2022/05/14 00:15:38;;;;;;;5.57;3.58;;;16.70;35.20;;;;;;5091913;28;20195;-32
2022/05/14 00:18:06;;;;;;;6.45;4.65;;;16.70;35.50;;;;;;5095171;28;20282;-31
2022/05/14 00:20:32;;;;;;;5.15;4.03;;;16.60;35.50;;;;;;5095905;28;20595;-32
2022/05/14 00:22:59;;;;;;;5.43;3.70;;;16.60;35.50;;;;;;5095855;28;20650;-32
2022/05/14 00:25:25;;;;;;;4.00;3.60;;;16.50;35.70;;;;;;5095806;28;20180;-32
2022/05/14 00:27:52;;;;;;;6.10;4.25;;;16.50;35.50;;;;;;5095826;28;20199;-32
2022/05/14 00:30:20;;;;;;;4.03;3.67;;;16.50;35.70;;;;;;5095594;28;20215;-32
2022/05/14 00:32:47;;;;;;;4.38;3.55;;;16.40;35.90;;;;;;5089581;28;20195;-32
2022/05/14 00:35:13;;;;;;;5.18;3.45;;;16.30;35.90;;;;;;5085243;28;20204;-31
2022/05/14 00:37:39;;;;;;;4.22;3.13;;;16.20;36.30;;;;;;5095389;28;20211;-32
2022/05/14 00:40:11;;;;;;;3.97;3.50;;;16.10;36.30;;;;;;5095548;28;20213;-32
2022/05/14 00:42:37;;;;;;;6.95;4.28;;;16.00;36.10;;;;;;5095239;28;20438;-31
2022/05/14 00:45:07;;;;;;;4.00;3.10;;;16.10;35.90;;;;;;5095636;28;20210;-31
2022/05/14 00:47:37;;;;;;;4.00;3.60;;;16.10;36.30;;;;;;5095376;28;20188;-31
2022/05/14 00:50:13;;;;;;;4.88;3.92;;;16.10;36.40;;;;;;5095628;28;20176;-32
2022/05/14 00:52:39;;;;;;;3.38;2.72;;;16.00;36.60;;;;;;5095170;28;20618;-31
2022/05/14 00:55:06;;;;;;;5.13;3.97;;;16.00;36.20;;;;;;5095218;28;20225;-32
2022/05/14 00:57:36;;;;;;;3.72;2.90;;;16.00;36.50;;;;;;5095045;28;20266;-31
2022/05/14 01:00:06;;;;;;;6.82;3.50;;;16.00;36.30;;;;;;5095417;28;20179;-32
2022/05/14 01:02:32;;;;;;;4.40;4.00;;;16.00;36.50;;;;;;5094856;28;20257;-32
2022/05/14 01:04:58;;;;;;;3.45;2.95;;;16.00;36.10;;;;;;5095093;28;20199;-31
2022/05/14 01:07:24;;;;;;;3.80;2.92;;;16.00;36.10;;;;;;5095198;28;20550;-31
2022/05/14 01:09:55;;;;;;;4.10;3.47;;;16.00;36.90;;;;;;5095075;28;20247;-31
2022/05/14 01:12:23;;;;;;;3.70;3.08;;;15.90;36.30;;;;;;5094711;28;20394;-31
2022/05/14 01:14:49;;;;;;;5.07;3.40;;;15.90;36.80;;;;;;5094887;28;20172;-31
2022/05/14 01:17:15;;;;;;;3.45;2.40;;;15.90;36.30;;;;;;5094746;28;20673;-32
2022/05/14 01:19:41;;;;;;;4.20;2.92;;;15.90;36.10;;;;;;5082732;28;20219;-32
2022/05/14 01:22:33;;;;;;;2.93;2.17;;;15.90;36.10;;;;;;5092085;28;20171;-31
2022/05/14 01:28:06;;;;;;;3.22;2.15;;;15.90;36.20;;;;;;5055015;28;20550;-31
2022/05/14 01:30:32;;;;;;;2.90;2.60;;;15.90;36.40;;;;;;5094346;28;20160;-31
2022/05/14 01:33:06;;;;;;;5.50;2.63;;;16.00;36.40;;;;;;5094509;28;20356;-32
2022/05/14 01:35:34;;;;;;;3.10;2.13;;;16.00;36.30;;;;;;5076374;28;20242;-33
2022/05/14 01:38:01;;;;;;;3.10;2.40;;;16.00;36.10;;;;;;5094236;28;20203;-32
2022/05/14 01:40:28;;;;;;;2.42;1.75;;;16.00;36.30;;;;;;5094238;28;20164;-32
2022/05/14 01:42:54;;;;;;;3.03;2.53;;;16.00;36.30;;;;;;5094299;28;20171;-33
2022/05/14 01:45:20;;;;;;;5.10;2.55;;;16.00;36.30;;;;;;5089587;28;20288;-33
2022/05/14 01:47:46;;;;;;;3.70;2.87;;;16.00;36.10;;;;;;5082361;28;20193;-33
2022/05/14 01:50:12;;;;;;;3.40;2.90;;;16.00;36.40;;;;;;5092163;28;20402;-33
2022/05/14 01:52:38;;;;;;;4.00;1.90;;;16.00;36.30;;;;;;5093947;28;20171;-32
2022/05/14 01:55:04;;;;;;;4.97;3.20;;;16.00;36.30;;;;;;5094058;28;20217;-32
2022/05/14 01:57:30;;;;;;;5.45;2.15;;;16.00;36.40;;;;;;5093902;28;20261;-33
2022/05/14 01:59:56;;;;;;;2.57;2.07;;;16.00;36.30;;;;;;5093979;28;20712;-32
2022/05/14 02:02:22;;;;;;;4.07;2.33;;;16.00;36.70;;;;;;5093785;28;20207;-32
2022/05/14 02:04:47;;;;;;;4.90;1.87;;;16.00;36.20;;;;;;5093920;28;20405;-32
2022/05/14 02:07:13;;;;;;;3.77;2.43;;;16.00;36.20;;;;;;5093869;28;20215;-33
2022/05/14 02:09:39;;;;;;;8.17;2.70;;;16.00;36.10;;;;;;5093910;28;20202;-32
2022/05/14 02:12:05;;;;;;;2.53;2.30;;;15.90;35.90;;;;;;5093534;28;20182;-32
2022/05/14 02:14:31;;;;;;;3.08;2.88;;;15.90;36.10;;;;;;5093851;28;20179;-33
2022/05/14 02:16:57;;;;;;;2.93;2.13;;;16.00;36.30;;;;;;5093698;28;20567;-32
2022/05/14 02:19:23;;;;;;;3.60;2.33;;;15.90;36.10;;;;;;5093885;28;20202;-32
2022/05/14 02:21:49;;;;;;;8.87;2.13;;;15.90;36.10;;;;;;5093347;28;20264;-32
2022/05/14 02:24:15;;;;;;;3.10;2.67;;;15.90;36.30;;;;;;5093580;28;20410;-32
2022/05/14 02:26:41;;;;;;;2.50;2.00;;;15.90;36.40;;;;;;5093385;28;20916;-33
2022/05/14 02:29:07;;;;;;;13.13;2.60;;;15.80;36.40;;;;;;5093370;28;20175;-32
2022/05/14 02:31:33;;;;;;;3.58;2.17;;;15.80;36.70;;;;;;5093264;28;20171;-33
2022/05/14 02:33:59;;;;;;;3.72;3.08;;;15.80;36.60;;;;;;5093633;28;20523;-33
2022/05/14 02:36:25;;;;;;;2.28;2.05;;;15.80;36.60;;;;;;5093048;28;20207;-32
2022/05/14 02:38:51;;;;;;;3.50;2.60;;;15.80;37.10;;;;;;5093277;28;20565;-33
2022/05/14 02:41:17;;;;;;;2.15;1.60;;;15.80;37.10;;;;;;5092824;28;20168;-32
2022/05/14 02:43:43;;;;;;;5.50;2.50;;;15.80;36.60;;;;;;5093422;28;20539;-33
2022/05/14 02:46:12;;;;;;;2.67;2.47;;;15.70;36.90;;;;;;5093290;28;20638;-32
2022/05/14 02:48:38;;;;;;;8.82;1.88;;;15.70;36.90;;;;;;5074951;28;20414;-32
2022/05/14 02:51:04;;;;;;;3.33;2.67;;;15.70;36.80;;;;;;5085285;28;20181;-32
2022/05/14 02:53:31;;;;;;;2.88;1.80;;;15.60;37.00;;;;;;5084519;28;20182;-33
2022/05/14 02:55:56;;;;;;;3.15;2.50;;;15.70;37.10;;;;;;5092818;28;20196;-32
2022/05/14 03:01:07;;;;;;;2.50;2.25;;;15.60;37.00;;;;;;5092758;28;20201;-32
2022/05/14 03:03:33;;;;;;;3.55;1.70;;;15.60;37.00;;;;;;5092920;28;20248;-32
2022/05/14 03:05:59;;;;;;;6.80;2.72;;;15.70;37.10;;;;;;5092698;28;20168;-32
2022/05/14 03:08:25;;;;;;;5.10;2.30;;;15.60;36.90;;;;;;5092750;28;20532;-32
2022/05/14 03:10:50;;;;;;;4.33;2.50;;;15.60;37.20;;;;;;5092406;28;20168;-32
2022/05/14 03:13:17;;;;;;;1.90;1.63;;;15.60;37.10;;;;;;5092679;28;20250;-32
2022/05/14 03:15:43;;;;;;;4.25;3.95;;;15.60;37.10;;;;;;5092519;28;20551;-32
2022/05/14 03:18:08;;;;;;;4.40;2.43;;;15.50;37.30;;;;;;5092633;28;20172;-32
2022/05/14 03:20:34;;;;;;;2.40;2.20;;;15.50;37.40;;;;;;5092361;28;20225;-32
2022/05/14 03:23:00;;;;;;;6.37;2.27;;;15.50;37.10;;;;;;5092489;28;20762;-32
2022/05/14 03:25:26;;;;;;;2.20;1.90;;;15.50;37.20;;;;;;5092416;28;20267;-32
2022/05/14 03:27:52;;;;;;;2.90;2.00;;;15.50;37.40;;;;;;5092436;28;20199;-32
2022/05/14 03:30:18;;;;;;;2.67;1.58;;;15.50;37.50;;;;;;5092250;28;20432;-32
2022/05/14 03:32:44;;;;;;;9.40;3.20;;;15.50;37.40;;;;;;5092256;28;20176;-32
2022/05/14 03:35:10;;;;;;;2.33;1.90;;;15.50;37.60;;;;;;5092317;28;20418;-32
2022/05/14 03:37:36;;;;;;;3.28;2.40;;;15.50;37.40;;;;;;5092176;28;20199;-32
2022/05/14 03:40:03;;;;;;;3.50;2.72;;;15.50;37.50;;;;;;5092178;28;20168;-32
2022/05/14 03:42:31;;;;;;;3.83;1.90;;;15.50;37.60;;;;;;5092081;28;20186;-33
2022/05/14 03:44:57;;;;;;;3.08;2.20;;;15.60;37.40;;;;;;5092224;28;20160;-32
2022/05/14 03:47:23;;;;;;;4.88;2.63;;;15.60;37.40;;;;;;5092422;28;20196;-32
2022/05/14 03:49:49;;;;;;;4.53;2.37;;;15.60;37.60;;;;;;5083559;28;20310;-32
2022/05/14 03:52:15;;;;;;;3.43;2.17;;;15.70;37.60;;;;;;5082949;28;20172;-32
2022/05/14 03:54:43;;;;;;;2.92;2.10;;;15.70;37.60;;;;;;5091942;28;20175;-32
2022/05/14 03:57:09;;;;;;;3.35;2.10;;;15.70;37.60;;;;;;5091959;28;20212;-32
2022/05/14 03:59:35;;;;;;;3.40;2.53;;;15.80;37.60;;;;;;5092102;28;20164;-32
2022/05/14 04:02:03;;;;;;;6.25;3.80;;;15.80;37.60;;;;;;5088102;28;20432;-32
2022/05/14 04:04:29;;;;;;;3.00;2.10;;;15.90;37.60;;;;;;5083995;28;20186;-32
2022/05/14 04:06:54;;;;;;;3.73;2.60;;;15.90;37.80;;;;;;5091990;28;20223;-32
2022/05/14 04:09:20;;;;;;;2.63;2.43;;;15.90;37.70;;;;;;5092316;28;20168;-32
2022/05/14 04:11:46;;;;;;;3.17;2.23;;;15.90;37.50;;;;;;5092070;28;20707;-32
2022/05/14 04:14:12;;;;;;;4.88;2.58;;;16.00;37.50;;;;;;5092342;28;20410;-32
2022/05/14 04:16:38;;;;;;;6.25;3.10;;;16.00;37.70;;;;;;5092061;28;20208;-32
2022/05/14 04:19:04;;;;;;;3.25;2.20;;;16.10;37.70;;;;;;5092241;28;20172;-32
2022/05/14 04:21:32;;;;;;;2.30;2.05;;;16.20;37.80;;;;;;5091685;28;20574;-32
2022/05/14 04:23:59;;;;;;;2.80;2.05;;;16.20;37.70;;;;;;5091987;28;20300;-32
2022/05/14 04:26:25;;;;;;;4.00;3.60;;;16.20;37.70;;;;;;5091793;28;20199;-32
2022/05/14 04:28:51;;;;;;;2.88;2.38;;;16.30;37.50;;;;;;5092100;28;20198;-33
2022/05/14 04:31:18;;;;;;;2.58;2.35;;;16.30;37.40;;;;;;5091846;28;20171;-32
2022/05/14 04:33:44;;;;;;;3.85;2.20;;;16.40;37.20;;;;;;5091785;28;20179;-33
2022/05/14 04:36:10;;;;;;;2.57;1.83;;;16.40;37.10;;;;;;5073301;28;20216;-32
2022/05/14 04:38:36;;;;;;;2.70;1.90;;;16.50;37.40;;;;;;5073619;28;20390;-32
2022/05/14 04:41:01;;;;;;;2.47;1.97;;;16.50;37.50;;;;;;5091545;28;20164;-32
2022/05/14 04:43:27;;;;;;;2.47;2.03;;;16.60;37.50;;;;;;5091661;28;20405;-32
2022/05/14 04:45:53;;;;;;;3.17;2.87;;;16.70;37.70;;;;;;5091636;28;20220;-32
2022/05/14 04:48:19;;;;;;;3.17;2.57;;;16.70;37.30;;;;;;5073514;28;20253;-32
2022/05/14 04:50:46;;;;;;;4.10;2.08;;;16.80;37.10;;;;;;5091385;28;20222;-32
2022/05/14 04:53:12;;;;;;;3.35;2.40;;;16.80;37.00;;;;;;5091586;28;20196;-32
2022/05/14 04:55:38;;;;;;;2.38;2.10;;;16.90;37.00;;;;;;5091557;28;20252;-32
2022/05/14 04:58:07;;;;;;;2.50;2.05;;;16.90;36.70;;;;;;5091508;28;20191;-32
2022/05/14 05:00:37;;;;;;;3.50;2.60;;;17.00;36.80;;;;;;5091275;28;20175;-32
2022/05/14 05:03:22;;;;;;;2.95;2.00;;;17.10;36.80;;;;;;5091535;28;20172;-32
2022/05/14 05:05:53;;;;;;;2.78;2.28;;;17.20;36.60;;;;;;5095383;28;20167;-32
2022/05/14 05:08:21;;;;;;;4.85;2.72;;;17.20;36.70;;;;;;5095134;28;20179;-32
2022/05/14 05:10:47;;;;;;;2.55;2.22;;;17.20;36.60;;;;;;5094829;28;20179;-32
2022/05/14 05:13:17;;;;;;;5.70;2.72;;;17.30;36.40;;;;;;5095086;28;20263;-32
2022/05/14 05:15:43;;;;;;;3.15;2.47;;;17.40;36.30;;;;;;5095080;28;20288;-32
2022/05/14 05:18:09;;;;;;;3.05;1.83;;;17.40;36.30;;;;;;5094807;28;20286;-32
2022/05/14 05:20:37;;;;;;;3.38;2.33;;;17.50;36.40;;;;;;5094604;28;20214;-32
2022/05/14 05:23:04;;;;;;;3.35;2.50;;;17.60;36.30;;;;;;5094824;28;20184;-32
2022/05/14 05:25:29;;;;;;;6.15;3.08;;;17.60;36.00;;;;;;5094690;28;20167;-32
2022/05/14 05:27:55;;;;;;;2.30;1.77;;;17.70;36.10;;;;;;5094557;28;20700;-32
2022/05/14 05:30:21;;;;;;;5.93;3.40;;;17.80;35.90;;;;;;5094505;28;20174;-32
2022/05/14 05:32:47;;;;;;;4.60;2.77;;;17.90;36.00;;;;;;5094513;28;20183;-32
2022/05/14 05:35:13;;;;;;;3.90;2.10;;;18.00;36.00;;;;;;5094256;28;20168;-32
2022/05/14 05:37:38;;;;;;;6.47;2.67;;;18.10;36.10;;;;;;5094317;28;20253;-32
2022/05/14 05:40:05;;;;;;;2.60;2.40;;;18.30;35.80;;;;;;5094593;28;20402;-32
2022/05/14 05:42:31;;;;;;;4.00;2.20;;;18.40;35.60;;;;;;5094973;28;20168;-33
2022/05/14 05:44:57;;;;;;;3.67;2.88;;;18.50;35.50;;;;;;5095872;28;20282;-33
2022/05/14 05:47:23;;;;;;;4.53;2.60;;;18.60;35.40;;;;;;5094247;28;20235;-32
2022/05/14 05:49:49;;;;;;;3.13;2.55;;;18.70;35.40;;;;;;5094252;28;20179;-32
2022/05/14 05:52:15;;;;;;;5.73;3.10;;;18.70;35.00;;;;;;5094020;28;20172;-32
2022/05/14 05:57:40;;;;;;;5.13;2.35;;;18.70;34.70;;;;;;5094096;28;20571;-33
2022/05/14 06:00:12;;;;;;;3.13;2.65;;;18.70;34.70;;;;;;5093997;28;20164;-32
2022/05/14 06:02:38;;;;;;;2.45;2.05;;;18.60;34.70;;;;;;5093987;28;20210;-32
2022/05/14 06:05:05;;;;;;;3.78;2.78;;;18.80;35.00;;;;;;5093980;28;20163;-32
2022/05/14 06:07:34;;;;;;;2.50;2.10;;;18.90;35.60;;;;;;5093826;28;20206;-32
2022/05/14 06:10:03;;;;;;;3.13;1.92;;;19.10;34.90;;;;;;5093828;28;20171;-32
2022/05/14 06:12:29;;;;;;;2.00;1.42;;;19.30;34.60;;;;;;5093588;28;20168;-32
2022/05/14 06:14:55;;;;;;;3.80;2.85;;;19.30;34.50;;;;;;5093637;28;20164;-32
2022/05/14 06:17:21;;;;;;;4.03;2.93;;;19.50;34.10;;;;;;5093668;28;20268;-32
2022/05/14 06:19:47;;;;;;;5.83;2.70;;;19.50;34.20;;;;;;5093696;28;20657;-32
2022/05/14 06:22:13;;;;;;;3.20;2.20;;;19.60;33.50;;;;;;5093369;28;20231;-32
2022/05/14 06:24:39;;;;;;;3.03;2.43;;;19.60;33.50;;;;;;5093555;28;20409;-32
2022/05/14 06:27:05;;;;;;;3.05;2.08;;;19.60;33.80;;;;;;5093690;28;20661;-32
2022/05/14 06:29:31;;;;;;;3.92;2.60;;;19.70;33.90;;;;;;5093709;28;20199;-32
2022/05/14 06:31:58;;;;;;;3.55;2.38;;;19.90;34.00;;;;;;5093223;28;20172;-32
2022/05/14 06:34:24;;;;;;;4.32;2.17;;;20.00;34.00;;;;;;5093383;28;20176;-32
2022/05/14 06:36:51;;;;;;;2.30;1.63;;;20.20;33.00;;;;;;5093058;28;20203;-32
2022/05/14 06:39:17;;;;;;;2.58;1.77;;;20.20;33.10;;;;;;5093221;28;20562;-32
2022/05/14 06:41:43;;;;;;;3.10;2.35;;;20.30;33.30;;;;;;5093270;28;20239;-32
2022/05/14 06:44:09;;;;;;;2.40;2.10;;;20.30;32.80;;;;;;5093144;28;20644;-32
2022/05/14 06:46:35;;;;;;;2.57;2.03;;;20.40;33.10;;;;;;5093159;28;20275;-32
2022/05/14 06:49:03;;;;;;;4.45;1.75;;;20.50;33.40;;;;;;5093138;28;20180;-32
2022/05/14 06:51:30;;;;;;;5.30;1.95;;;20.60;33.20;;;;;;5093085;28;20183;-32
2022/05/14 06:54:04;;;;;;;3.65;2.17;;;20.80;33.00;;;;;;5093007;28;20176;-32
2022/05/14 06:56:32;;;;;;;2.70;1.88;;;20.90;33.30;;;;;;5092661;28;20261;-32
2022/05/14 06:58:59;;;;;;;2.38;1.42;;;21.00;32.50;;;;;;5092886;28;20512;-32
2022/05/14 07:01:25;;;;;;;4.25;1.80;;;21.20;32.90;;;;;;5092674;28;20247;-32
2022/05/14 07:06:40;;;;;;;3.67;2.63;;;21.40;32.70;;;;;;5092742;28;20249;-32
2022/05/14 07:09:23;;;;;;;3.47;3.17;;;21.50;32.90;;;;;;5093000;28;20258;-32
2022/05/14 07:11:53;;;;;;;3.08;2.28;;;21.50;32.00;;;;;;5092542;28;20176;-32
2022/05/14 07:14:20;;;;;;;3.03;2.08;;;21.70;32.80;;;;;;5091250;28;20176;-32
2022/05/14 07:16:48;;;;;;;2.63;2.10;;;21.90;33.00;;;;;;5083981;28;20254;-32
2022/05/14 07:19:14;;;;;;;3.20;2.10;;;22.10;32.90;;;;;;5092733;28;20259;-32
2022/05/14 07:21:42;;;;;;;4.50;2.37;;;22.30;32.50;;;;;;5091932;28;20207;-32
2022/05/14 07:24:12;;;;;;;3.10;2.10;;;22.40;31.30;;;;;;5092349;28;20510;-32
2022/05/14 07:26:39;;;;;;;2.53;2.20;;;22.50;31.50;;;;;;5092012;28;20891;-32
2022/05/14 07:29:07;;;;;;;4.37;2.30;;;22.60;31.90;;;;;;5092381;28;20221;-32
2022/05/14 07:31:34;;;;;;;5.23;3.10;;;22.80;32.40;;;;;;5092101;28;20458;-32
2022/05/14 07:34:00;;;;;;;5.90;3.00;;;22.90;31.30;;;;;;5092425;28;20546;-32
2022/05/14 07:36:27;;;;;;;3.03;2.00;;;23.00;30.30;;;;;;5091989;28;20918;-33
2022/05/14 07:38:56;;;;;;;5.13;1.75;;;23.10;31.10;;;;;;5087384;28;20449;-32
2022/05/14 07:41:22;;;;;;;4.17;2.17;;;23.20;31.20;;;;;;5083468;28;20176;-32
2022/05/14 07:43:52;;;;;;;3.20;2.33;;;23.30;30.80;;;;;;5092139;28;20531;-32
2022/05/14 07:46:26;;;;;;;2.53;2.10;;;23.40;30.80;;;;;;5092104;28;20686;-32
2022/05/14 07:48:54;;;;;;;2.70;2.28;;;23.60;31.30;;;;;;5087133;28;20781;-32
2022/05/14 07:51:20;;;;;;;4.00;3.00;;;23.70;31.10;;;;;;5083520;28;20265;-32
2022/05/14 07:53:46;;;;;;;2.57;2.30;;;23.80;30.50;;;;;;5092208;28;20440;-32
2022/05/14 07:56:13;;;;;;;5.43;2.57;;;23.90;30.20;;;;;;5091916;28;20457;-32
2022/05/14 07:58:40;;;;;;;2.80;2.10;;;23.90;30.40;;;;;;5092201;28;20417;-33
2022/05/14 08:01:06;;;;;;;4.57;3.33;;;24.00;30.00;;;;;;5091899;28;20405;-32
2022/05/14 08:03:32;;;;;;;3.47;3.10;;;24.10;30.50;;;;;;5074051;28;20804;-32
2022/05/14 08:05:58;;;;;;;6.50;3.70;;;24.20;30.40;;;;;;5092199;28;20250;-32
2022/05/14 08:08:25;;;;;;;4.80;3.30;;;24.30;29.90;;;;;;5092096;28;20497;-32
2022/05/14 08:10:51;;;;;;;9.17;3.10;;;24.30;29.50;;;;;;5091988;28;20970;-33
2022/05/14 08:13:19;;;;;;;6.77;3.67;;;24.10;28.20;;;;;;5088175;28;20513;-32
2022/05/14 08:15:46;;;;;;;9.50;4.27;;;24.00;29.00;;;;;;5083435;28;20473;-32
2022/05/14 08:18:12;;;;;;;5.40;3.67;;;23.90;28.20;;;;;;5091852;28;20398;-32
2022/05/14 08:20:39;;;;;;;8.50;3.60;;;23.70;28.50;;;;;;5091422;28;20409;-33
2022/05/14 08:26:00;;;;;;;4.97;3.30;;;23.60;28.80;;;;;;5091857;28;20480;-33
2022/05/14 08:28:27;;;;;;;5.33;3.13;;;23.60;28.60;;;;;;5091921;28;20418;-32
2022/05/14 08:30:53;;;;;;;3.70;3.00;;;23.60;29.00;;;;;;5091608;28;20398;-33
2022/05/14 08:33:47;;;;;;;3.43;2.83;;;23.70;28.60;;;;;;5091569;28;20412;-32
2022/05/14 08:36:12;;;;;;;5.13;2.80;;;23.70;29.00;;;;;;5091106;28;20457;-32
2022/05/14 08:38:38;;;;;;;4.83;3.10;;;23.90;29.30;;;;;;5094557;28;20402;-32
2022/05/14 08:41:04;;;;;;;4.67;3.73;;;24.00;28.50;;;;;;5095938;28;20168;-33
2022/05/14 08:43:42;;;;;;;4.67;3.77;;;24.10;28.60;;;;;;5096077;28;20170;-33
2022/05/14 08:46:14;;;;;;;6.67;3.03;;;24.10;27.80;;;;;;5096623;28;20600;-32
2022/05/14 08:48:41;;;;;;;4.50;3.37;;;24.20;28.80;;;;;;5096153;28;20429;-33
2022/05/14 08:51:13;;;;;;;4.63;3.67;;;24.40;28.50;;;;;;5095128;28;20404;-32
2022/05/14 08:53:39;;;;;;;5.87;3.80;;;24.60;29.20;;;;;;5095509;28;20603;-32
2022/05/14 08:56:11;;;;;;;5.43;4.47;;;24.70;29.00;;;;;;5095148;28;20510;-32
2022/05/14 08:58:54;;;;;;;4.23;3.70;;;24.70;27.50;;;;;;5095141;28;20404;-33
2022/05/14 09:01:24;;;;;;;3.20;2.80;;;24.70;27.60;;;;;;5095123;28;20378;-33
2022/05/14 09:03:50;;;;;;;4.00;3.00;;;24.80;28.00;;;;;;5095278;28;20402;-32
2022/05/14 09:06:16;;;;;;;5.40;3.60;;;24.90;28.70;;;;;;5095089;28;20479;-33
2022/05/14 09:08:42;;;;;;;6.77;3.03;;;25.20;28.30;;;;;;5095200;28;20402;-33
2022/05/14 09:11:23;;;;;;;6.40;3.07;;;25.30;27.40;;;;;;5095038;28;20164;-33
2022/05/14 09:13:57;;;;;;;4.10;3.33;;;25.40;27.70;;;;;;5095093;28;20156;-33
2022/05/14 09:16:36;;;;;;;4.53;2.87;;;25.50;27.50;;;;;;5094874;28;20789;-33
2022/05/14 09:19:16;;;;;;;3.33;2.80;;;25.70;27.90;;;;;;5095130;28;20469;-33
2022/05/14 09:21:50;;;;;;;4.33;2.70;;;25.80;26.70;;;;;;5094469;28;20481;-33
2022/05/14 09:24:28;;;;;;;5.63;3.23;;;25.90;26.90;;;;;;5094808;28;20401;-33
2022/05/14 09:26:56;;;;;;;6.30;3.50;;;25.80;26.30;;;;;;5094646;28;20422;-33
2022/05/14 09:29:44;;;;;;;5.07;4.00;;;25.80;26.50;;;;;;5094635;28;20413;-33
2022/05/14 09:32:22;;;;;;;5.33;3.53;;;25.80;25.80;;;;;;5094234;28;20410;-32
2022/05/14 09:34:49;;;;;;;6.90;3.93;;;25.70;24.90;;;;;;5094546;28;20486;-33
2022/05/14 09:37:21;;;;;;;3.73;3.20;;;25.60;25.70;;;;;;5094115;28;20972;-33
2022/05/14 09:40:04;;;;;;;5.03;3.53;;;25.70;25.80;;;;;;5094297;28;20409;-33
2022/05/14 09:42:41;;;;;;;6.50;3.00;;;25.80;26.80;;;;;;5075935;28;20402;-33
2022/05/14 09:45:38;;;;;;;4.50;3.40;;;25.90;25.80;;;;;;5094511;28;20390;-33
2022/05/14 09:48:17;;;;;;;6.37;3.00;;;26.10;25.90;;;;;;5073826;28;20438;-33
2022/05/14 09:50:46;;;;;;;5.17;3.07;;;26.10;25.10;;;;;;5093152;28;20405;-33
2022/05/14 09:53:12;;;;;;;4.47;3.47;;;26.30;26.60;;;;;;5094347;28;20413;-33
2022/05/14 09:55:57;;;;;;;4.43;3.40;;;26.40;26.40;;;;;;5094161;28;20761;-33
2022/05/14 09:58:31;;;;;;;3.73;2.97;;;26.40;25.40;;;;;;5094131;28;20294;-32
2022/05/14 10:01:17;;;;;;;6.13;3.87;;;26.40;25.60;;;;;;5093950;28;20422;-32
2022/05/14 10:03:42;;;;;;;6.40;3.10;;;26.40;25.00;;;;;;5094399;28;20540;-33
2022/05/14 10:06:43;;;;;;;4.80;2.90;;;26.50;26.00;;;;;;5093895;28;20965;-33
2022/05/14 10:09:23;;;;;;;3.87;2.50;;;26.60;25.70;;;;;;5040140;28;20271;-33
2022/05/14 10:11:59;;;;;;;6.90;3.50;;;26.90;26.50;;;;;;5093469;28;20406;-33
2022/05/14 10:14:29;;;;;;;5.20;4.00;;;26.90;24.50;;;;;;5093721;28;20447;-33
2022/05/14 10:17:23;;;;;;;5.57;2.63;;;26.70;23.70;;;;;;5093521;28;20805;-33
2022/05/14 10:19:58;;;;;;;8.27;4.27;;;26.90;25.10;;;;;;5093800;28;20830;-33
2022/05/14 10:28:38;;;;;;;4.70;3.70;;;26.90;25.30;;;;;;5093534;28;20516;-33
2022/05/14 10:31:13;;;;;;;4.27;3.33;;;27.10;26.80;;;;;;5093470;28;20443;-33
2022/05/14 10:33:39;;;;;;;6.27;4.10;;;27.20;26.00;;;;;;5093712;28;20400;-33
2022/05/14 10:36:19;;;;;;;5.57;3.27;;;27.20;24.60;;;;;;5093498;28;20458;-33
2022/05/14 10:38:50;;;;;;;7.97;4.00;;;27.20;25.50;;;;;;5093300;28;20516;-33
2022/05/14 10:41:44;;;;;;;8.73;3.80;;;27.00;24.60;;;;;;5093254;28;20414;-33
2022/05/14 10:44:16;;;;;;;4.97;3.90;;;26.80;24.60;;;;;;5090025;28;20470;-33
2022/05/14 10:46:44;;;;;;;8.23;3.23;;;26.70;24.20;;;;;;5093167;28;20446;-33
2022/05/14 10:49:27;;;;;;;8.07;4.03;;;26.70;24.80;;;;;;5093031;28;20425;-33
2022/05/14 10:51:53;;;;;;;7.70;2.20;;;26.70;25.70;;;;;;5092881;28;20394;-33
2022/05/14 10:54:23;;;;;;;3.23;2.70;;;26.90;25.30;;;;;;5093129;28;20406;-33
2022/05/14 10:56:54;;;;;;;8.00;2.80;;;27.10;25.90;;;;;;5092809;28;20992;-33
2022/05/14 10:59:52;;;;;;;6.40;3.97;;;27.40;26.40;;;;;;5092870;28;20434;-33
2022/05/14 11:02:29;;;;;;;4.30;2.70;;;27.40;25.00;;;;;;5073617;28;20442;-33
2022/05/14 11:04:56;;;;;;;3.60;2.57;;;27.50;25.70;;;;;;5092847;28;20398;-33
2022/05/14 11:07:43;;;;;;;5.40;2.80;;;27.60;24.80;;;;;;5092843;28;20436;-33
2022/05/14 11:10:20;;;;;;;5.70;3.60;;;27.60;24.00;;;;;;5092941;28;20432;-33
2022/05/14 11:12:47;;;;;;;5.83;2.53;;;27.50;24.00;;;;;;5092790;28;20413;-33
2022/05/14 11:15:28;;;;;;;3.70;2.07;;;27.50;23.50;;;;;;5092711;28;20405;-33
2022/05/14 11:18:07;;;;;;;3.60;2.60;;;27.50;23.80;;;;;;5092667;28;20425;-33
2022/05/14 11:20:33;;;;;;;2.87;2.00;;;27.60;24.30;;;;;;5092484;28;20410;-33
2022/05/14 11:23:10;;;;;;;3.23;2.37;;;27.70;24.50;;;;;;5092530;28;20803;-33
2022/05/14 11:25:37;;;;;;;3.57;2.20;;;27.80;22.70;;;;;;5092567;28;20474;-33
2022/05/14 11:28:17;;;;;;;3.10;2.70;;;27.80;22.60;;;;;;5092229;28;20494;-33
2022/05/14 11:30:47;;;;;;;3.47;2.10;;;27.70;21.90;;;;;;5092196;28;20390;-33
2022/05/14 11:33:22;;;;;;;5.23;3.10;;;27.50;23.00;;;;;;5092232;28;20398;-33
2022/05/14 11:35:50;;;;;;;4.50;2.53;;;27.70;23.90;;;;;;5092120;28;20441;-33
2022/05/14 11:38:25;;;;;;;6.93;2.87;;;27.70;24.00;;;;;;5092221;28;20451;-33
2022/05/14 11:41:07;;;;;;;3.03;1.73;;;27.70;22.80;;;;;;5092335;28;20402;-33
2022/05/14 11:43:53;;;;;;;5.40;2.50;;;27.70;23.80;;;;;;5092443;28;20441;-32
2022/05/14 11:46:24;;;;;;;2.67;1.97;;;27.70;23.20;;;;;;5092366;28;20467;-33
2022/05/14 11:49:38;;;;;;;2.20;1.80;;;27.80;24.00;;;;;;5092204;28;20398;-33
2022/05/14 11:52:25;;;;;;;2.20;1.80;;;27.90;23.20;;;;;;5070343;28;20417;-33
2022/05/14 11:55:14;;;;;;;3.27;2.40;;;28.10;24.80;;;;;;5092276;28;20938;-33
2022/05/14 11:57:53;;;;;;;2.80;2.10;;;28.30;23.00;;;;;;5091990;28;20449;-33
2022/05/14 12:00:26;;;;;;;2.60;1.90;;;28.30;24.00;;;;;;5092304;28;20402;-33
2022/05/14 12:02:54;;;;;;;2.73;1.43;;;28.20;23.10;;;;;;5092204;28;20401;-33
2022/05/14 12:05:22;;;;;;;4.93;1.70;;;28.30;24.50;;;;;;5091955;28;20433;-33
2022/05/14 12:08:01;;;;;;;5.70;1.60;;;28.30;24.70;;;;;;5092032;28;20417;-33
2022/05/14 12:10:50;;;;;;;2.93;2.37;;;28.50;24.00;;;;;;5091482;28;20440;-32
2022/05/14 12:13:36;;;;;;;5.53;2.60;;;28.50;21.80;;;;;;5092495;28;20386;-32
2022/05/14 12:16:03;;;;;;;5.83;2.23;;;28.20;21.50;;;;;;5095430;28;20537;-32
2022/05/14 12:18:29;;;;;;;3.40;2.03;;;27.90;22.50;;;;;;5096171;28;20470;-32
2022/05/14 12:21:01;;;;;;;3.90;2.40;;;27.70;22.00;;;;;;5095842;28;20412;-32
2022/05/14 12:23:46;;;;;;;4.27;1.93;;;27.40;23.60;;;;;;5080777;28;20457;-32
2022/05/14 12:26:21;;;;;;;7.37;3.63;;;27.50;23.60;;;;;;5075525;28;20875;-33
2022/05/14 12:28:47;;;;;;;5.17;1.97;;;27.80;23.90;;;;;;5075567;28;20811;-32
2022/05/14 12:34:01;;;;;;;3.00;1.67;;;28.30;22.60;;;;;;5075921;28;20405;-32
2022/05/14 12:36:33;;;;;;;8.10;2.10;;;28.30;22.50;;;;;;5075368;28;20466;-33
2022/05/14 12:39:01;;;;;;;15.57;2.33;;;28.50;22.90;;;;;;5075573;28;20812;-33
2022/05/14 12:41:39;;;;;;;7.47;2.30;;;28.70;22.70;;;;;;5075281;28;20413;-33
2022/05/14 12:44:29;;;;;;;2.77;2.30;;;28.70;20.10;;;;;;5075504;28;20411;-33
2022/05/14 12:46:58;;;;;;;5.23;1.90;;;28.50;20.30;;;;;;5075246;28;20510;-32
2022/05/14 12:49:27;;;;;;;4.87;1.90;;;28.40;20.70;;;;;;5075288;28;20402;-32
2022/05/14 12:52:15;;;;;;;4.67;2.63;;;28.20;20.60;;;;;;5075075;28;20411;-32
2022/05/14 12:54:53;;;;;;;2.10;1.20;;;28.10;20.00;;;;;;5075705;28;20422;-32
2022/05/14 12:57:20;;;;;;;2.93;2.10;;;28.00;21.60;;;;;;5075581;28;20454;-32
2022/05/14 12:59:45;;;;;;;2.37;1.73;;;28.10;21.80;;;;;;5075391;28;20767;-33
2022/05/14 13:02:33;;;;;;;3.70;1.80;;;28.20;19.70;;;;;;5074810;28;20398;-33
2022/05/14 13:05:25;;;;;;;3.60;2.03;;;28.10;20.50;;;;;;5074895;28;20175;-33
2022/05/14 13:07:59;;;;;;;2.57;2.30;;;28.10;21.80;;;;;;5057269;28;20427;-33
2022/05/14 13:10:27;;;;;;;2.57;2.17;;;28.20;22.20;;;;;;5074796;28;20399;-33
2022/05/14 13:13:02;;;;;;;2.80;1.93;;;28.50;20.40;;;;;;5074702;28;20439;-33
2022/05/14 13:15:52;;;;;;;2.63;2.10;;;28.50;20.60;;;;;;5074780;28;20398;-33
2022/05/14 13:18:32;;;;;;;2.63;1.97;;;28.60;21.20;;;;;;5074687;28;20928;-33
2022/05/14 13:21:04;;;;;;;5.97;2.10;;;28.70;20.30;;;;;;5074640;28;20391;-33
2022/05/14 13:23:31;;;;;;;3.10;2.50;;;28.80;22.00;;;;;;5074529;28;20406;-34
2022/05/14 13:26:34;;;;;;;6.10;3.67;;;29.00;22.70;;;;;;5073854;28;20448;-34